createdAt,value
2023-02-03T00:01:49.759Z,3.25
2023-02-03T00:04:16.546Z,3.65
2023-02-03T00:06:43.418Z,3.60
2023-02-03T00:09:10.374Z,2.95
2023-02-03T00:11:37.500Z,3.28
2023-02-03T00:14:05.501Z,3.03
2023-02-03T00:16:32.223Z,3.65
2023-02-03T00:18:59.061Z,3.67
2023-02-03T00:21:25.808Z,3.40
2023-02-03T00:23:52.790Z,3.58
2023-02-03T00:26:19.509Z,3.53
2023-02-03T00:28:47.767Z,3.33
2023-02-03T00:31:19.668Z,3.15
2023-02-03T00:33:46.988Z,3.92
2023-02-03T00:36:14.471Z,3.13
2023-02-03T00:38:41.227Z,3.65
2023-02-03T00:41:08.057Z,4.13
2023-02-03T00:43:34.914Z,3.30
2023-02-03T00:46:01.687Z,4.10
2023-02-03T00:48:28.480Z,4.65
2023-02-03T00:50:55.222Z,4.10
2023-02-03T00:53:21.864Z,4.13
2023-02-03T00:55:48.670Z,4.60
2023-02-03T00:58:15.355Z,4.13
2023-02-03T01:00:42.041Z,4.30
2023-02-03T01:03:08.880Z,4.88
2023-02-03T01:05:35.793Z,4.60
2023-02-03T01:08:02.790Z,5.50
2023-02-03T01:10:30.233Z,4.18
2023-02-03T01:12:56.947Z,4.55
2023-02-03T01:15:23.672Z,4.78
2023-02-03T01:17:50.450Z,4.80
2023-02-03T01:20:17.363Z,5.05
2023-02-03T01:22:44.078Z,4.60
2023-02-03T01:25:11.068Z,4.80
2023-02-03T01:27:37.897Z,4.80
2023-02-03T01:30:05.095Z,5.60
2023-02-03T01:32:31.754Z,5.40
2023-02-03T01:34:58.400Z,5.10
2023-02-03T01:37:25.127Z,5.03
2023-02-03T01:39:51.859Z,5.63
2023-02-03T01:42:18.547Z,5.88
2023-02-03T01:44:52.117Z,5.82
2023-02-03T01:47:24.890Z,5.50
2023-02-03T01:50:03.349Z,5.32
2023-02-03T01:52:32.864Z,5.82
2023-02-03T01:55:05.215Z,5.53
2023-02-03T01:57:39.962Z,5.82
2023-02-03T02:00:08.186Z,5.93
2023-02-03T02:02:36.126Z,5.95
2023-02-03T02:05:25.134Z,6.07
2023-02-03T02:07:52.091Z,5.82
2023-02-03T02:10:18.925Z,6.78
2023-02-03T02:12:45.596Z,5.35
2023-02-03T02:15:12.543Z,5.43
2023-02-03T02:18:16.092Z,6.90
2023-02-03T02:21:10.056Z,5.45
2023-02-03T02:23:49.180Z,5.70
2023-02-03T02:26:18.560Z,4.75
2023-02-03T02:29:16.555Z,6.03
2023-02-03T02:31:52.875Z,5.70
2023-02-03T02:34:37.489Z,6.25
2023-02-03T02:37:24.089Z,5.30
2023-02-03T02:40:09.763Z,5.82
2023-02-03T02:42:39.358Z,5.78
2023-02-03T02:45:14.826Z,5.65
2023-02-03T02:47:41.897Z,6.13
2023-02-03T02:50:25.946Z,5.85
2023-02-03T02:52:54.310Z,5.90
2023-02-03T02:55:31.310Z,5.57
2023-02-03T02:58:04.046Z,7.88
2023-02-03T03:00:33.994Z,6.85
2023-02-03T03:03:19.034Z,7.18
2023-02-03T03:06:11.621Z,6.88
2023-02-03T03:08:50.806Z,6.68
2023-02-03T03:11:18.353Z,7.65
2023-02-03T03:13:50.939Z,6.90
2023-02-03T03:16:21.791Z,7.82
2023-02-03T03:19:06.137Z,7.13
2023-02-03T03:21:37.533Z,7.22
2023-02-03T03:24:09.459Z,7.25
2023-02-03T03:26:39.164Z,7.38
2023-02-03T03:29:25.176Z,6.80
2023-02-03T03:31:52.825Z,6.28
2023-02-03T03:34:20.069Z,5.75
2023-02-03T03:36:58.645Z,5.07
2023-02-03T03:39:45.907Z,5.57
2023-02-03T03:42:42.760Z,4.70
2023-02-03T03:45:21.379Z,4.00
2023-02-03T03:47:52.219Z,4.20
2023-02-03T03:50:40.772Z,3.75
2023-02-03T03:53:09.635Z,4.43
2023-02-03T03:55:37.943Z,4.75
2023-02-03T03:58:10.604Z,4.68
2023-02-03T04:00:39.850Z,5.22
2023-02-03T04:03:38.973Z,5.03
2023-02-03T04:06:06.309Z,4.97
2023-02-03T04:08:33.103Z,5.82
2023-02-03T04:10:59.814Z,5.30
2023-02-03T04:13:26.483Z,4.85
2023-02-03T04:15:53.257Z,4.80
2023-02-03T04:18:20.483Z,4.35
2023-02-03T04:20:47.178Z,4.22
2023-02-03T04:23:13.891Z,4.68
2023-02-03T04:25:40.571Z,4.03
2023-02-03T04:28:07.374Z,4.00
2023-02-03T04:30:34.093Z,3.63
2023-02-03T04:33:00.881Z,3.55
2023-02-03T04:35:27.829Z,3.47
2023-02-03T04:37:54.534Z,3.53
2023-02-03T04:40:21.252Z,3.40
2023-02-03T04:42:48.018Z,3.47
2023-02-03T04:45:14.681Z,3.28
2023-02-03T04:47:41.344Z,3.45
2023-02-03T04:50:08.570Z,3.25
2023-02-03T04:52:35.259Z,3.53
2023-02-03T04:55:01.964Z,3.15
2023-02-03T04:57:28.724Z,3.25
2023-02-03T04:59:55.346Z,3.03
2023-02-03T05:02:22.191Z,3.70
2023-02-03T05:04:48.900Z,3.33
2023-02-03T05:07:15.641Z,3.70
2023-02-03T05:09:42.303Z,4.47
2023-02-03T05:12:08.975Z,4.32
2023-02-03T05:14:35.673Z,5.32
2023-02-03T05:17:02.779Z,5.53
2023-02-03T05:19:29.486Z,6.22
2023-02-03T05:21:56.246Z,6.03
2023-02-03T05:24:22.966Z,7.10
2023-02-03T05:26:49.655Z,7.20
2023-02-03T05:29:16.336Z,7.07
2023-02-03T05:31:43.110Z,7.63
2023-02-03T05:34:09.926Z,7.85
2023-02-03T05:36:36.645Z,8.82
2023-02-03T05:39:03.426Z,9.68
2023-02-03T05:41:48.971Z,9.95
2023-02-03T05:44:15.624Z,20.73
2023-02-03T05:46:42.439Z,12.63
2023-02-03T05:49:09.096Z,13.18
2023-02-03T05:51:36.113Z,13.50
2023-02-03T05:54:02.765Z,14.10
2023-02-03T05:56:29.454Z,12.93
2023-02-03T05:58:56.191Z,14.82
2023-02-03T06:01:23.075Z,14.90
2023-02-03T06:03:50.159Z,14.80
2023-02-03T06:06:17.609Z,16.55
2023-02-03T06:08:44.503Z,16.00
2023-02-03T06:11:12.005Z,16.85
2023-02-03T06:13:38.773Z,18.85
2023-02-03T06:16:05.632Z,18.60
2023-02-03T06:18:32.288Z,18.17
2023-02-03T06:20:59.016Z,20.10
2023-02-03T06:23:25.783Z,20.13
2023-02-03T06:25:52.617Z,19.90
2023-02-03T06:28:19.770Z,21.00
2023-02-03T06:30:51.221Z,22.05
2023-02-03T06:33:18.139Z,21.75
2023-02-03T06:35:45.077Z,22.92
2023-02-03T06:38:11.909Z,23.25
2023-02-03T06:40:38.681Z,22.45
2023-02-03T06:43:05.384Z,22.83
2023-02-03T06:45:32.068Z,23.45
2023-02-03T06:47:58.816Z,21.92
2023-02-03T06:50:25.850Z,23.42
2023-02-03T06:52:52.606Z,23.20
2023-02-03T06:55:19.255Z,22.88
2023-02-03T06:57:47.464Z,22.45
2023-02-03T07:00:26.418Z,23.15
2023-02-03T07:02:55.272Z,22.48
2023-02-03T07:05:23.337Z,23.42
2023-02-03T07:07:50.633Z,23.48
2023-02-03T07:10:17.846Z,23.05
2023-02-03T07:12:44.839Z,24.10
2023-02-03T07:15:12.689Z,24.10
2023-02-03T07:17:39.525Z,24.48
2023-02-03T07:20:06.970Z,25.50
2023-02-03T07:22:33.722Z,23.42
2023-02-03T07:25:00.364Z,23.00
2023-02-03T07:27:28.093Z,23.42
2023-02-03T07:29:54.786Z,21.05
2023-02-03T07:32:21.468Z,22.50
2023-02-03T07:34:48.172Z,23.63
2023-02-03T07:37:14.928Z,22.63
2023-02-03T07:39:42.296Z,22.27
2023-02-03T07:42:08.999Z,21.38
2023-02-03T07:44:35.723Z,22.98
2023-02-03T07:47:02.600Z,21.95
2023-02-03T07:49:29.376Z,21.55
2023-02-03T07:51:56.640Z,20.60
2023-02-03T07:54:23.377Z,19.75
2023-02-03T07:56:50.028Z,20.23
2023-02-03T07:59:17.406Z,20.33
2023-02-03T08:01:44.192Z,19.48
2023-02-03T08:04:15.749Z,20.38
2023-02-03T08:06:43.513Z,18.15
2023-02-03T08:09:10.217Z,18.92
2023-02-03T08:11:36.864Z,16.92
2023-02-03T08:14:03.649Z,17.83
2023-02-03T08:16:30.590Z,16.73
2023-02-03T08:18:58.278Z,16.80
2023-02-03T08:21:25.072Z,16.60
2023-02-03T08:23:51.734Z,14.95
2023-02-03T08:26:18.579Z,15.00
2023-02-03T08:28:50.026Z,14.32
2023-02-03T08:31:17.300Z,13.95
2023-02-03T08:33:44.301Z,13.50
2023-02-03T08:36:11.516Z,12.68
2023-02-03T08:38:39.277Z,12.68
2023-02-03T08:41:11.154Z,12.18
2023-02-03T08:43:38.598Z,11.77
2023-02-03T08:46:07.247Z,11.65
2023-02-03T08:48:34.181Z,10.77
2023-02-03T08:51:01.102Z,10.88
2023-02-03T08:53:28.222Z,11.30
2023-02-03T08:55:56.415Z,10.25
2023-02-03T08:58:23.267Z,10.45
2023-02-03T09:00:53.056Z,8.70
2023-02-03T09:03:20.029Z,9.48
2023-02-03T09:05:47.069Z,9.20
2023-02-03T09:08:13.779Z,9.13
2023-02-03T09:10:40.439Z,7.88
2023-02-03T09:13:07.144Z,8.77
2023-02-03T09:18:20.787Z,7.35
2023-02-03T09:20:47.479Z,7.15
2023-02-03T09:23:14.558Z,6.97
2023-02-03T09:25:43.074Z,6.30
2023-02-03T09:28:11.228Z,5.78
2023-02-03T09:30:38.040Z,5.82
2023-02-03T09:33:05.230Z,6.18
2023-02-03T09:35:31.953Z,5.43
2023-02-03T09:37:59.603Z,5.55
2023-02-03T09:40:34.528Z,5.18
2023-02-03T09:43:24.196Z,4.78
2023-02-03T09:45:51.498Z,5.03
2023-02-03T09:48:23.607Z,5.07
2023-02-03T09:50:51.777Z,4.93
2023-02-03T09:53:35.399Z,4.90
2023-02-03T09:56:02.440Z,4.80
2023-02-03T09:58:33.617Z,4.72
2023-02-03T10:01:02.547Z,4.10
2023-02-03T10:03:53.382Z,5.03
2023-02-03T10:06:33.159Z,4.35
2023-02-03T10:09:05.613Z,4.25
2023-02-03T10:12:07.048Z,3.88
2023-02-03T10:14:58.589Z,4.68
2023-02-03T10:17:40.626Z,3.83
2023-02-03T10:20:23.233Z,3.60
2023-02-03T10:22:55.029Z,3.70
2023-02-03T10:25:37.276Z,3.92
2023-02-03T10:28:18.172Z,3.00
2023-02-03T10:30:56.476Z,3.47
2023-02-03T10:33:26.664Z,3.40
2023-02-03T10:36:02.324Z,3.63
2023-02-03T10:38:36.546Z,3.30
2023-02-03T10:41:04.148Z,3.15
2023-02-03T10:43:47.940Z,3.10
2023-02-03T10:46:16.287Z,2.85
2023-02-03T10:48:43.047Z,3.38
2023-02-03T10:51:18.237Z,3.80
2023-02-03T10:53:46.194Z,2.83
2023-02-03T10:56:21.221Z,1.60
2023-02-03T10:58:51.701Z,1.95
2023-02-03T11:01:22.079Z,1.45
2023-02-03T11:03:54.932Z,1.55
2023-02-03T11:06:21.812Z,2.00
2023-02-03T11:08:50.571Z,1.70
2023-02-03T11:11:23.892Z,2.67
2023-02-03T11:16:24.785Z,2.33
2023-02-03T11:18:55.989Z,2.78
2023-02-03T11:21:30.449Z,2.50
2023-02-03T11:24:10.616Z,3.30
2023-02-03T11:26:46.304Z,2.67
2023-02-03T11:29:34.496Z,2.67
2023-02-03T11:32:18.452Z,2.63
2023-02-03T11:35:01.909Z,2.78
2023-02-03T11:37:39.845Z,3.13
2023-02-03T11:40:12.276Z,2.95
2023-02-03T11:42:58.563Z,3.00
2023-02-03T11:45:47.230Z,2.65
2023-02-03T11:48:35.167Z,2.90
2023-02-03T11:51:25.912Z,3.17
2023-02-03T11:54:29.518Z,2.95
2023-02-03T11:57:18.250Z,2.85
2023-02-03T11:59:50.815Z,3.35
2023-02-03T12:02:45.272Z,3.03
2023-02-03T12:05:34.708Z,3.38
2023-02-03T12:08:32.450Z,2.97
2023-02-03T12:11:38.674Z,3.00
2023-02-03T12:14:19.537Z,3.15
2023-02-03T12:16:49.461Z,3.53
2023-02-03T12:19:32.227Z,3.65
2023-02-03T12:22:16.036Z,3.17
2023-02-03T12:24:50.073Z,3.83
2023-02-03T12:27:38.738Z,3.65
2023-02-03T12:30:24.505Z,3.95
2023-02-03T12:32:59.525Z,3.58
2023-02-03T12:35:34.875Z,3.58
2023-02-03T12:38:24.046Z,5.10
2023-02-03T12:41:00.249Z,3.50
2023-02-03T12:43:40.467Z,4.38
2023-02-03T12:46:21.053Z,4.22
2023-02-03T12:49:01.231Z,4.35
2023-02-03T12:51:38.481Z,4.50
2023-02-03T12:54:34.793Z,4.95
2023-02-03T12:57:20.437Z,5.00
2023-02-03T13:00:02.736Z,4.90
2023-02-03T13:02:34.971Z,2.20
2023-02-03T13:05:21.485Z,1.95
2023-02-03T13:08:01.460Z,1.30
2023-02-03T13:10:44.918Z,1.10
2023-02-03T13:13:16.409Z,1.33
2023-02-03T13:15:48.208Z,1.27
2023-02-03T13:18:33.038Z,1.35
2023-02-03T13:21:00.093Z,2.22
2023-02-03T13:23:27.278Z,2.70
2023-02-03T13:26:05.728Z,2.15
2023-02-03T13:28:44.135Z,2.63
2023-02-03T13:31:47.729Z,3.50
2023-02-03T13:34:43.653Z,4.30
2023-02-03T13:37:42.744Z,3.53
2023-02-03T13:40:21.451Z,3.55
2023-02-03T13:43:05.934Z,3.22
2023-02-03T13:48:18.650Z,2.95
2023-02-03T13:50:46.459Z,2.90
2023-02-03T13:53:26.010Z,3.60
2023-02-03T13:56:00.195Z,3.53
2023-02-03T14:00:56.320Z,3.70
2023-02-03T14:03:26.157Z,3.78
2023-02-03T14:05:58.254Z,3.72
2023-02-03T14:08:28.105Z,3.67
2023-02-03T14:11:32.541Z,4.50
2023-02-03T14:14:08.048Z,4.10
2023-02-03T14:16:56.537Z,4.47
2023-02-03T14:19:23.203Z,4.57
2023-02-03T14:22:01.271Z,4.13
2023-02-03T14:24:45.071Z,4.80
2023-02-03T14:27:22.599Z,3.55
2023-02-03T14:30:12.046Z,4.63
2023-02-03T14:32:54.101Z,4.30
2023-02-03T14:35:24.407Z,4.80
2023-02-03T14:38:01.780Z,4.82
2023-02-03T14:40:54.160Z,5.28
2023-02-03T14:43:43.054Z,4.95
2023-02-03T14:46:46.441Z,5.13
2023-02-03T14:49:19.291Z,5.47
2023-02-03T14:51:57.661Z,4.18
2023-02-03T14:54:39.744Z,4.82
2023-02-03T14:57:25.035Z,5.32
2023-02-03T15:00:03.487Z,6.55
2023-02-03T15:02:31.892Z,5.63
2023-02-03T15:05:14.175Z,5.20
2023-02-03T15:07:45.299Z,4.53
2023-02-03T15:10:17.222Z,4.38
2023-02-03T15:12:47.071Z,6.82
2023-02-03T15:15:29.321Z,5.82
2023-02-03T15:18:19.236Z,5.47
2023-02-03T15:20:47.669Z,5.65
2023-02-03T15:23:26.614Z,5.80
2023-02-03T15:25:58.664Z,5.03
2023-02-03T15:28:26.548Z,4.95
2023-02-03T15:31:00.265Z,6.45
2023-02-03T15:33:29.946Z,5.38
2023-02-03T15:36:02.780Z,6.10
2023-02-03T15:38:35.071Z,5.18
2023-02-03T15:41:03.757Z,5.40
2023-02-03T15:43:38.485Z,4.82
2023-02-03T15:46:27.837Z,5.10
2023-02-03T15:48:57.413Z,5.88
2023-02-03T15:51:36.946Z,6.03
2023-02-03T15:54:11.814Z,6.88
2023-02-03T15:56:41.455Z,5.65
2023-02-03T15:59:32.635Z,4.07
2023-02-03T16:02:02.030Z,5.38
2023-02-03T16:04:30.577Z,4.82
2023-02-03T16:06:58.744Z,4.90
2023-02-03T16:09:41.728Z,5.00
2023-02-03T16:12:18.932Z,5.28
2023-02-03T16:14:46.144Z,3.60
2023-02-03T16:17:36.660Z,4.07
2023-02-03T16:20:12.505Z,5.63
2023-02-03T16:22:40.462Z,4.57
2023-02-03T16:25:21.107Z,4.38
2023-02-03T16:28:18.645Z,3.95
2023-02-03T16:31:35.243Z,4.15
2023-02-03T16:34:29.645Z,3.97
2023-02-03T16:37:16.266Z,4.72
2023-02-03T16:40:01.684Z,3.92
2023-02-03T16:42:56.783Z,4.18
2023-02-03T16:45:42.494Z,4.80
2023-02-03T16:48:31.311Z,4.15
2023-02-03T16:51:04.907Z,4.10
2023-02-03T16:53:32.996Z,3.67
2023-02-03T16:56:06.734Z,3.75
2023-02-03T16:58:33.748Z,4.20
2023-02-03T17:01:02.931Z,4.35
2023-02-03T17:03:30.252Z,3.95
2023-02-03T17:05:57.515Z,4.63
2023-02-03T17:08:25.903Z,4.25
2023-02-03T17:10:52.977Z,4.22
2023-02-03T17:13:21.561Z,4.75
2023-02-03T17:15:52.507Z,4.63
2023-02-03T17:18:19.731Z,4.90
2023-02-03T17:20:46.427Z,4.72
2023-02-03T17:23:15.912Z,4.57
2023-02-03T17:25:45.640Z,4.57
2023-02-03T17:28:13.898Z,5.82
2023-02-03T17:30:40.768Z,5.30
2023-02-03T17:33:12.335Z,6.13
2023-02-03T17:35:45.141Z,5.03
2023-02-03T17:38:14.365Z,5.03
2023-02-03T17:54:30.373Z,5.35
2023-02-03T17:56:57.025Z,4.22
2023-02-03T17:59:23.798Z,5.32
2023-02-03T18:01:50.562Z,4.65
2023-02-03T18:04:17.365Z,5.45
2023-02-03T18:06:44.672Z,5.10
2023-02-03T18:09:13.979Z,4.13
2023-02-03T18:11:40.983Z,5.82
2023-02-03T18:14:07.655Z,4.40
2023-02-03T18:16:36.032Z,5.25
2023-02-03T18:19:11.143Z,4.82
2023-02-03T18:21:39.078Z,5.80
2023-02-03T18:24:06.027Z,5.03
2023-02-03T18:26:36.929Z,5.10
2023-02-03T18:29:05.220Z,5.20
2023-02-03T18:31:32.188Z,4.18
2023-02-03T18:34:03.460Z,4.35
2023-02-03T18:36:30.402Z,5.85
2023-02-03T18:38:57.331Z,3.70
2023-02-03T18:41:25.499Z,5.53
2023-02-03T18:43:52.254Z,5.25
2023-02-03T18:46:21.891Z,4.10
2023-02-03T18:48:48.759Z,5.22
2023-02-03T18:51:17.412Z,4.10
2023-02-03T18:53:49.021Z,3.83
2023-02-03T18:56:18.457Z,4.57
2023-02-03T18:58:45.545Z,3.95
2023-02-03T19:01:27.183Z,3.97
2023-02-03T19:03:55.116Z,3.20
2023-02-03T19:06:22.011Z,4.50
2023-02-03T19:08:48.723Z,4.18
2023-02-03T19:11:15.477Z,4.25
2023-02-03T19:13:42.542Z,4.43
2023-02-03T19:16:12.884Z,4.38
2023-02-03T19:18:39.708Z,3.65
2023-02-03T19:21:06.899Z,3.75
2023-02-03T19:23:33.748Z,4.22
2023-02-03T19:26:00.443Z,3.90
2023-02-03T19:28:30.777Z,3.72
2023-02-03T19:31:08.307Z,4.07
2023-02-03T19:33:36.026Z,3.67
2023-02-03T19:36:03.479Z,3.95
2023-02-03T19:38:30.486Z,3.72
2023-02-03T19:40:57.235Z,3.60
2023-02-03T19:43:24.645Z,3.40
2023-02-03T19:45:51.914Z,3.30
2023-02-03T19:48:19.098Z,4.15
2023-02-03T19:50:49.383Z,3.85
2023-02-03T19:53:17.461Z,2.88
2023-02-03T19:55:45.524Z,4.00
2023-02-03T19:58:13.131Z,2.65
2023-02-03T20:00:40.713Z,3.53
2023-02-03T20:03:07.463Z,2.75
2023-02-03T20:05:35.953Z,2.95
2023-02-03T20:08:03.079Z,2.90
2023-02-03T20:10:30.136Z,2.80
2023-02-03T20:12:56.948Z,2.92
2023-02-03T20:15:23.720Z,2.95
2023-02-03T20:17:50.481Z,2.85
2023-02-03T20:20:20.361Z,3.50
2023-02-03T20:22:47.654Z,3.03
2023-02-03T20:25:14.803Z,2.95
2023-02-03T20:27:41.734Z,2.72
2023-02-03T20:30:09.047Z,2.92
2023-02-03T20:32:36.370Z,2.50
2023-02-03T20:35:04.992Z,3.25
2023-02-03T20:37:32.244Z,3.03
2023-02-03T20:39:58.951Z,2.42
2023-02-03T20:42:25.815Z,2.40
2023-02-03T20:44:52.556Z,3.15
2023-02-03T20:47:21.265Z,2.28
2023-02-03T20:49:49.476Z,2.53
2023-02-03T20:52:20.847Z,2.05
2023-02-03T20:54:47.969Z,1.73
2023-02-03T20:57:19.144Z,2.38
2023-02-03T20:59:46.443Z,2.85
2023-02-03T21:02:31.026Z,1.88
2023-02-03T21:07:32.478Z,2.15
2023-02-03T21:10:00.015Z,2.47
2023-02-03T21:12:28.418Z,2.10
2023-02-03T21:14:55.476Z,1.50
2023-02-03T21:17:25.577Z,1.40
2023-02-03T21:19:53.653Z,1.60
2023-02-03T21:22:26.267Z,0.82
2023-02-03T21:24:59.878Z,1.05
2023-02-03T21:27:32.195Z,1.05
2023-02-03T21:30:01.622Z,0.90
2023-02-03T21:32:38.431Z,1.08
2023-02-03T21:35:24.832Z,0.73
2023-02-03T21:38:02.833Z,0.80
2023-02-03T21:40:34.210Z,0.70
2023-02-03T21:43:03.169Z,0.70
2023-02-03T21:45:33.660Z,0.70
2023-02-03T21:48:01.640Z,0.80
2023-02-03T21:50:34.187Z,0.95
2023-02-03T21:53:12.481Z,0.68
2023-02-03T21:55:41.510Z,0.80
2023-02-03T21:58:26.488Z,0.70
2023-02-03T22:00:54.727Z,0.80
2023-02-03T22:03:29.661Z,0.47
2023-02-03T22:06:19.574Z,0.68
2023-02-03T22:08:48.788Z,0.85
2023-02-03T22:11:18.402Z,0.63
2023-02-03T22:13:45.568Z,0.70
2023-02-03T22:16:14.132Z,0.47
2023-02-03T22:18:44.035Z,0.50
2023-02-03T22:21:11.386Z,0.75
2023-02-03T22:23:39.000Z,0.82
2023-02-03T22:26:06.749Z,0.70
2023-02-03T22:28:34.140Z,0.90
2023-02-03T22:31:02.939Z,0.60
2023-02-03T22:33:30.004Z,0.60
2023-02-03T22:35:56.854Z,0.57
2023-02-03T22:38:23.631Z,0.60
2023-02-03T22:40:50.404Z,1.00
2023-02-03T22:43:17.084Z,1.13
2023-02-03T22:45:43.875Z,0.80
2023-02-03T22:48:10.597Z,0.90
2023-02-03T22:50:37.289Z,0.73
2023-02-03T22:53:06.021Z,1.10
2023-02-03T22:55:32.696Z,0.75
2023-02-03T22:57:59.480Z,1.00
2023-02-03T23:00:26.789Z,1.20
2023-02-03T23:02:53.835Z,1.35
2023-02-03T23:05:21.643Z,1.23
2023-02-03T23:07:49.541Z,1.20
2023-02-03T23:10:22.804Z,1.30
2023-02-03T23:12:49.795Z,1.30
2023-02-03T23:15:18.087Z,1.50
2023-02-03T23:17:45.198Z,1.48
2023-02-03T23:20:14.101Z,1.60
2023-02-03T23:22:41.041Z,1.63
2023-02-03T23:25:07.999Z,1.70
2023-02-03T23:27:34.837Z,1.80
2023-02-03T23:30:01.648Z,1.50
2023-02-03T23:32:28.420Z,2.03
2023-02-03T23:35:13.960Z,1.95
2023-02-03T23:37:40.685Z,2.40
2023-02-03T23:40:07.660Z,2.13
2023-02-03T23:42:36.097Z,2.38
2023-02-03T23:45:07.898Z,2.17
2023-02-03T23:47:35.133Z,2.20
2023-02-03T23:50:01.886Z,1.75
2023-02-03T23:52:35.497Z,2.03
2023-02-03T23:55:04.742Z,1.90
2023-02-03T23:57:31.717Z,2.22
2023-02-03T23:59:58.550Z,1.83
